Time;durP1;ratioP1;P1;durP2;ratioP2;P2;SDS_P1;SDS_P2;PMS_P1;PMS_P2;Temp;Humidity;BMP_temperature;BMP_pressure;BME280_temperature;BME280_humidity;BME280_pressure;Samples;Min_cycle;Max_cycle;Signal;HPM_P1;HPM_P2
2022/06/08 00:00:16;;;;;;;39.72;29.17;;;26.80;99.90;;;;;;5092098;28;20020;-67
2022/06/08 00:02:46;;;;;;;40.67;30.02;;;26.90;99.90;;;;;;5092011;28;20029;-67
2022/06/08 00:05:13;;;;;;;46.53;28.05;;;26.90;99.90;;;;;;5093221;28;20032;-67
2022/06/08 00:07:40;;;;;;;31.58;21.83;;;27.00;99.90;;;;;;5093384;28;20024;-67
2022/06/08 00:10:08;;;;;;;32.88;18.52;;;27.00;99.90;;;;;;5092924;28;20032;-67
2022/06/08 00:12:35;;;;;;;32.05;20.25;;;27.10;99.90;;;;;;5093670;28;20108;-67
2022/06/08 00:15:02;;;;;;;26.48;19.67;;;27.10;99.90;;;;;;5092093;28;20028;-66
2022/06/08 00:17:29;;;;;;;35.22;21.65;;;27.10;99.90;;;;;;5093339;28;20020;-67
2022/06/08 00:19:56;;;;;;;28.15;20.17;;;27.00;99.90;;;;;;5091616;28;20078;-67
2022/06/08 00:22:23;;;;;;;25.63;20.40;;;27.00;99.90;;;;;;5092726;28;20384;-66
2022/06/08 00:24:49;;;;;;;37.53;26.15;;;26.90;99.90;;;;;;5093469;28;20019;-67
2022/06/08 00:27:16;;;;;;;27.00;20.08;;;27.00;99.90;;;;;;5093302;28;20020;-67
2022/06/08 00:29:43;;;;;;;23.98;19.92;;;27.00;99.90;;;;;;5092997;28;20024;-67
2022/06/08 00:32:10;;;;;;;28.73;20.73;;;27.00;99.90;;;;;;5091977;28;20051;-67
2022/06/08 00:34:37;;;;;;;28.42;21.73;;;26.90;99.90;;;;;;5093447;28;20020;-65
2022/06/08 00:37:04;;;;;;;33.10;20.92;;;27.00;99.90;;;;;;5093167;28;20047;-63
2022/06/08 00:39:31;;;;;;;31.73;21.42;;;27.00;99.90;;;;;;5092918;28;20571;-65
2022/06/08 00:42:00;;;;;;;27.80;20.75;;;27.10;99.90;;;;;;5093169;28;20119;-65
2022/06/08 00:44:33;;;;;;;36.03;21.45;;;27.10;99.90;;;;;;5092113;28;20045;-67
2022/06/08 00:47:03;;;;;;;31.63;21.05;;;27.00;99.90;;;;;;5088936;28;20036;-67
2022/06/08 00:49:42;;;;;;;31.52;20.88;;;27.10;99.90;;;;;;5103409;28;20023;-67
2022/06/08 00:52:11;;;;;;;29.25;22.70;;;27.00;99.90;;;;;;5092506;28;20028;-68
2022/06/08 00:54:41;;;;;;;29.85;22.52;;;27.00;99.90;;;;;;5093396;28;20024;-67
2022/06/08 00:57:11;;;;;;;31.75;23.13;;;27.10;99.90;;;;;;5090391;28;20387;-67
2022/06/08 00:59:42;;;;;;;31.42;23.23;;;27.10;99.90;;;;;;5092861;28;20176;-68
2022/06/08 01:02:09;;;;;;;28.92;22.40;;;27.20;99.90;;;;;;5090601;28;20022;-68
2022/06/08 01:04:36;;;;;;;35.70;23.85;;;27.30;99.90;;;;;;5083579;28;20063;-66
2022/06/08 01:07:05;;;;;;;31.00;24.27;;;27.30;99.90;;;;;;5096871;28;20020;-67
2022/06/08 01:09:35;;;;;;;34.28;24.05;;;27.40;99.90;;;;;;5096380;28;20020;-67
2022/06/08 01:12:10;;;;;;;46.42;27.65;;;27.40;99.90;;;;;;5095765;28;20073;-67
2022/06/08 01:14:37;;;;;;;37.67;26.83;;;27.40;99.90;;;;;;5094247;28;20151;-68
2022/06/08 01:17:08;;;;;;;37.10;26.80;;;27.40;99.90;;;;;;5096204;28;20024;-68
2022/06/08 01:19:37;;;;;;;36.85;26.83;;;27.40;99.90;;;;;;5094944;28;20177;-68
2022/06/08 01:22:07;;;;;;;38.63;29.98;;;27.50;99.90;;;;;;5096318;28;20087;-68
2022/06/08 01:24:36;;;;;;;39.85;31.52;;;27.50;99.90;;;;;;5094656;28;20376;-67
2022/06/08 01:27:26;;;;;;;41.40;30.15;;;27.60;99.90;;;;;;5095668;28;20469;-68
2022/06/08 01:30:03;;;;;;;45.00;33.55;;;27.70;99.90;;;;;;5089281;28;20051;-67
2022/06/08 01:32:33;;;;;;;42.47;33.30;;;27.80;99.90;;;;;;5094213;28;20138;-67
2022/06/08 01:35:08;;;;;;;45.88;33.72;;;27.90;99.90;;;;;;5093050;28;20084;-67
2022/06/08 01:38:03;;;;;;;47.17;35.72;;;28.20;99.90;;;;;;5092044;28;20028;-67
2022/06/08 01:40:41;;;;;;;39.78;32.25;;;28.30;99.90;;;;;;5090229;28;20051;-67
2022/06/08 01:43:11;;;;;;;42.58;31.48;;;28.30;99.90;;;;;;5090148;28;20419;-67
2022/06/08 01:45:47;;;;;;;45.92;32.30;;;28.30;99.90;;;;;;5094053;28;20020;-68
2022/06/08 01:48:26;;;;;;;32.97;25.42;;;28.50;99.90;;;;;;5095681;28;20024;-68
2022/06/08 01:51:10;;;;;;;38.33;24.40;;;28.70;99.90;;;;;;5092895;28;20468;-68
2022/06/08 01:53:58;;;;;;;28.50;21.60;;;28.80;99.90;;;;;;5095670;28;20031;-67
2022/06/08 01:56:45;;;;;;;28.30;21.95;;;28.80;99.90;;;;;;5087527;28;20036;-67
2022/06/08 01:59:16;;;;;;;20.08;16.85;;;28.90;99.90;;;;;;5091561;28;20112;-67
2022/06/08 02:01:47;;;;;;;22.42;18.10;;;29.00;99.90;;;;;;5095885;28;20100;-68
2022/06/08 02:04:35;;;;;;;29.67;19.35;;;29.00;99.90;;;;;;5094176;28;20051;-67
2022/06/08 02:07:29;;;;;;;17.80;15.10;;;29.20;99.90;;;;;;5095549;28;20019;-68
2022/06/08 02:09:57;;;;;;;26.27;20.83;;;29.30;99.90;;;;;;5093702;28;20480;-67
2022/06/08 02:12:24;;;;;;;24.92;20.05;;;29.30;99.90;;;;;;5093917;28;20039;-67
2022/06/08 02:15:00;;;;;;;29.27;20.67;;;29.20;99.90;;;;;;5092370;28;20074;-68
2022/06/08 02:17:37;;;;;;;31.20;24.15;;;29.10;99.90;;;;;;5093538;28;20055;-68
2022/06/08 02:20:22;;;;;;;33.60;22.58;;;29.20;99.90;;;;;;5093106;28;20455;-68
2022/06/08 02:22:58;;;;;;;34.55;24.65;;;29.20;99.90;;;;;;5094571;28;20081;-67
2022/06/08 02:25:51;;;;;;;16.98;14.10;;;29.40;99.90;;;;;;5094156;28;20105;-68
2022/06/08 02:28:17;;;;;;;;;;;29.60;99.90;;;;;;5085436;28;20130;-69
2022/06/08 02:30:51;;;;;;;19.23;12.82;;;29.70;99.90;;;;;;5092868;28;19908;-67
2022/06/08 02:36:33;;;;;;;12.07;8.18;;;29.80;99.90;;;;;;5076425;28;20074;-67
2022/06/08 02:39:03;;;;;;;16.35;8.75;;;29.80;99.90;;;;;;5082333;28;20047;-68
2022/06/08 02:41:32;;;;;;;15.82;7.93;;;29.80;99.90;;;;;;5084310;28;20060;-67
2022/06/08 02:44:05;;;;;;;13.18;7.35;;;29.70;99.90;;;;;;5080121;28;20481;-69
2022/06/08 02:46:47;;;;;;;12.02;7.72;;;29.70;99.90;;;;;;5085868;28;20276;-66
2022/06/08 02:49:14;;;;;;;11.57;7.10;;;29.70;99.90;;;;;;5081209;28;20530;-67
2022/06/08 02:51:47;;;;;;;8.40;6.72;;;29.70;99.90;;;;;;5083954;28;20078;-65
2022/06/08 02:54:19;;;;;;;11.50;7.43;;;29.80;99.90;;;;;;5074619;28;20020;-67
2022/06/08 02:56:55;;;;;;;10.20;7.15;;;29.80;99.90;;;;;;5085459;28;20462;-67
2022/06/08 02:59:26;;;;;;;10.75;6.60;;;30.00;99.90;;;;;;5079793;28;20036;-67
2022/06/08 03:02:03;;;;;;;8.52;6.20;;;30.00;99.90;;;;;;5085561;28;20043;-72
2022/06/08 03:04:38;;;;;;;8.05;6.05;;;30.10;99.90;;;;;;5083235;28;20043;-67
2022/06/08 03:07:15;;;;;;;11.38;6.57;;;30.10;99.90;;;;;;5085839;28;20016;-66
2022/06/08 03:09:43;;;;;;;9.85;6.45;;;30.00;99.90;;;;;;5085326;28;20362;-66
2022/06/08 03:12:21;;;;;;;7.68;5.63;;;30.10;99.90;;;;;;5088887;28;20085;-67
2022/06/08 03:14:48;;;;;;;13.18;7.53;;;30.10;99.90;;;;;;5088768;28;20020;-70
2022/06/08 03:17:17;;;;;;;11.75;7.40;;;30.20;99.90;;;;;;5088528;28;20024;-71
2022/06/08 03:19:45;;;;;;;10.38;6.95;;;30.10;99.90;;;;;;5085412;28;20020;-67
2022/06/08 03:22:14;;;;;;;15.27;6.45;;;30.10;99.90;;;;;;5086491;28;20028;-67
2022/06/08 03:24:41;;;;;;;8.48;5.75;;;30.30;99.90;;;;;;5086854;28;20035;-68
2022/06/08 03:27:08;;;;;;;7.45;5.05;;;30.50;99.90;;;;;;5064774;28;20381;-65
2022/06/08 03:29:36;;;;;;;7.53;4.60;;;30.60;99.90;;;;;;5085154;28;20053;-67
2022/06/08 03:32:02;;;;;;;12.18;7.15;;;30.60;99.90;;;;;;5089078;28;20097;-68
2022/06/08 03:34:30;;;;;;;8.05;5.60;;;30.50;99.90;;;;;;5081735;28;20028;-68
2022/06/08 03:36:56;;;;;;;8.88;5.28;;;30.60;99.90;;;;;;5084595;28;20028;-67
2022/06/08 03:39:23;;;;;;;12.15;5.75;;;30.60;99.90;;;;;;5081383;28;20028;-67
2022/06/08 03:41:50;;;;;;;8.95;5.85;;;30.70;99.90;;;;;;5083229;28;20529;-68
2022/06/08 03:44:17;;;;;;;9.80;5.88;;;30.80;99.90;;;;;;5083663;28;20114;-68
2022/06/08 03:46:55;;;;;;;8.38;4.70;;;30.80;99.90;;;;;;5080604;28;20029;-66
2022/06/08 03:49:24;;;;;;;9.90;4.85;;;30.70;99.90;;;;;;5084733;28;20023;-64
2022/06/08 03:51:54;;;;;;;7.43;4.97;;;30.80;99.90;;;;;;5088531;28;20664;-66
2022/06/08 03:54:26;;;;;;;7.15;4.43;;;30.80;99.90;;;;;;5085618;28;20042;-65
2022/06/08 03:56:56;;;;;;;7.95;4.97;;;31.00;99.90;;;;;;5089072;28;20116;-64
2022/06/08 03:59:24;;;;;;;9.07;5.28;;;30.90;99.90;;;;;;5092433;28;20476;-64
2022/06/08 04:01:51;;;;;;;7.55;4.47;;;30.90;99.90;;;;;;5082939;28;20385;-63
2022/06/08 04:04:18;;;;;;;5.80;4.25;;;30.90;99.90;;;;;;5088238;28;20024;-65
2022/06/08 04:06:45;;;;;;;6.22;4.40;;;30.90;99.90;;;;;;5099835;28;20055;-64
2022/06/08 04:09:12;;;;;;;4.13;3.72;;;31.10;99.90;;;;;;5098116;28;20028;-64
2022/06/08 04:11:39;;;;;;;10.00;5.22;;;31.10;99.90;;;;;;5089347;28;20032;-64
2022/06/08 04:14:06;;;;;;;12.80;7.18;;;31.10;99.90;;;;;;5080589;28;20515;-65
2022/06/08 04:16:33;;;;;;;23.65;14.85;;;31.10;99.90;;;;;;5082849;28;20035;-64
2022/06/08 04:19:00;;;;;;;27.42;16.77;;;31.00;99.90;;;;;;5087300;28;20027;-65
2022/06/08 04:21:27;;;;;;;38.72;20.58;;;31.00;99.90;;;;;;5089217;28;20028;-66
2022/06/08 04:23:54;;;;;;;36.53;21.02;;;30.80;99.90;;;;;;5087896;28;20235;-66
2022/06/08 04:26:22;;;;;;;28.83;18.52;;;30.70;99.90;;;;;;5090638;28;20087;-64
2022/06/08 04:28:49;;;;;;;22.75;16.27;;;30.70;99.90;;;;;;5093370;28;20017;-62
2022/06/08 04:31:16;;;;;;;23.65;16.10;;;30.60;99.90;;;;;;5087029;28;20032;-63
2022/06/08 04:33:43;;;;;;;23.77;15.25;;;30.60;99.90;;;;;;5090653;28;20043;-63
2022/06/08 04:36:10;;;;;;;18.38;13.73;;;30.50;99.90;;;;;;5083600;28;20036;-64
2022/06/08 04:38:37;;;;;;;19.42;11.38;;;30.60;99.90;;;;;;5080396;28;20047;-61
2022/06/08 04:41:05;;;;;;;18.50;11.73;;;30.70;99.90;;;;;;5087807;28;20032;-62
2022/06/08 04:43:32;;;;;;;19.02;9.82;;;30.80;99.90;;;;;;5070682;28;20181;-62
2022/06/08 04:45:58;;;;;;;19.50;10.73;;;31.00;99.90;;;;;;5090036;28;20393;-62
2022/06/08 04:48:26;;;;;;;14.75;10.48;;;31.00;99.90;;;;;;5103084;22;20128;-63
2022/06/08 04:50:53;;;;;;;18.17;10.90;;;31.10;99.90;;;;;;5073320;28;20516;-65
2022/06/08 04:53:20;;;;;;;23.30;12.57;;;31.20;99.90;;;;;;5074143;28;20283;-64
2022/06/08 04:55:46;;;;;;;14.38;10.48;;;31.10;99.90;;;;;;5072808;28;20025;-64
2022/06/08 04:58:13;;;;;;;19.60;14.32;;;31.10;99.90;;;;;;5069204;28;20577;-63
2022/06/08 05:00:40;;;;;;;20.23;14.18;;;31.00;99.90;;;;;;5071656;28;20386;-62
2022/06/08 05:03:07;;;;;;;18.13;12.48;;;31.00;99.90;;;;;;5071220;28;20488;-61
2022/06/08 05:05:38;;;;;;;19.90;11.30;;;30.90;99.90;;;;;;5071212;28;20036;-60
2022/06/08 05:08:07;;;;;;;14.32;11.20;;;31.00;99.90;;;;;;5072298;28;20032;-61
2022/06/08 05:10:35;;;;;;;16.00;10.10;;;30.90;99.90;;;;;;5070724;28;20450;-62
2022/06/08 05:13:04;;;;;;;14.80;9.63;;;31.00;99.90;;;;;;5056164;28;20060;-60
2022/06/08 05:15:34;;;;;;;27.92;17.13;;;31.00;99.90;;;;;;5050190;28;20036;-62
2022/06/08 05:18:01;;;;;;;15.55;9.95;;;31.00;99.90;;;;;;5049652;28;20028;-60
2022/06/08 05:20:29;;;;;;;12.68;9.98;;;30.90;99.90;;;;;;5055206;28;20107;-60
2022/06/08 05:22:56;;;;;;;17.33;9.77;;;30.90;99.90;;;;;;5048510;28;20025;-61
2022/06/08 05:25:33;;;;;;;12.18;10.13;;;30.90;99.90;;;;;;5072993;28;20082;-62
2022/06/08 05:28:01;;;;;;;12.27;10.07;;;31.00;99.90;;;;;;5050404;28;20025;-63
2022/06/08 05:30:28;;;;;;;22.25;12.15;;;31.00;99.90;;;;;;5056768;28;20033;-63
2022/06/08 05:32:59;;;;;;;28.10;17.85;;;31.00;99.90;;;;;;5051666;28;20164;-63
2022/06/08 05:35:28;;;;;;;17.38;15.13;;;31.00;99.90;;;;;;5052256;28;20453;-61
2022/06/08 05:37:56;;;;;;;25.70;17.90;;;31.00;99.90;;;;;;5044250;28;20029;-62
2022/06/08 05:40:24;;;;;;;25.02;18.25;;;31.00;99.90;;;;;;5050494;28;20374;-60
2022/06/08 05:42:51;;;;;;;24.23;18.35;;;30.90;99.90;;;;;;5055963;28;20095;-62
2022/06/08 05:45:25;;;;;;;20.95;17.67;;;30.90;99.90;;;;;;5054130;28;20024;-61
2022/06/08 05:47:53;;;;;;;24.27;17.52;;;30.90;99.90;;;;;;5045264;28;20037;-62
2022/06/08 05:50:20;;;;;;;19.67;15.65;;;30.90;99.90;;;;;;5046404;28;20032;-61
2022/06/08 05:52:48;;;;;;;22.77;16.63;;;30.90;99.90;;;;;;5052496;28;20064;-62
2022/06/08 05:55:15;;;;;;;19.63;16.52;;;30.90;99.90;;;;;;5046947;28;20021;-62
2022/06/08 05:57:43;;;;;;;24.80;17.77;;;30.90;99.90;;;;;;5048036;28;20021;-62
2022/06/08 06:00:14;;;;;;;17.65;14.82;;;30.80;99.90;;;;;;5048275;28;20059;-63
2022/06/08 06:02:42;;;;;;;21.27;16.77;;;30.80;99.90;;;;;;5046113;28;20513;-61
2022/06/08 06:05:09;;;;;;;19.55;17.02;;;30.70;99.90;;;;;;5051187;28;20024;-63
2022/06/08 06:07:37;;;;;;;26.55;15.48;;;30.80;99.90;;;;;;5050437;28;20064;-63
2022/06/08 06:10:05;;;;;;;25.30;16.95;;;30.70;99.90;;;;;;5050425;28;20036;-62
2022/06/08 06:12:32;;;;;;;27.35;15.90;;;30.70;99.90;;;;;;5047692;28;20084;-63
2022/06/08 06:15:00;;;;;;;25.20;16.33;;;30.70;99.90;;;;;;5047267;28;20025;-61
2022/06/08 06:17:28;;;;;;;25.80;18.95;;;30.70;99.90;;;;;;5046481;28;20035;-61
2022/06/08 06:19:56;;;;;;;22.70;18.67;;;30.80;99.90;;;;;;5047589;28;20084;-60
2022/06/08 06:22:23;;;;;;;23.85;17.15;;;30.80;99.90;;;;;;5047650;28;20639;-63
2022/06/08 06:24:50;;;;;;;20.00;16.35;;;30.90;99.90;;;;;;5045883;28;20009;-61
2022/06/08 06:27:16;;;;;;;24.80;17.23;;;31.20;99.90;;;;;;5044189;28;20029;-64
2022/06/08 06:29:43;;;;;;;24.20;17.02;;;31.30;99.90;;;;;;5051780;28;20025;-62
2022/06/08 06:32:17;;;;;;;20.17;15.63;;;31.50;99.90;;;;;;5051179;28;20116;-63
2022/06/08 06:34:44;;;;;;;18.27;16.48;;;31.70;99.90;;;;;;5049502;28;20029;-61
2022/06/08 06:37:11;;;;;;;24.75;16.30;;;31.80;99.90;;;;;;5044988;28;20381;-63
2022/06/08 06:39:37;;;;;;;19.00;14.23;;;31.90;99.90;;;;;;5050181;28;20397;-65
2022/06/08 06:42:04;;;;;;;20.00;14.00;;;32.00;99.90;;;;;;5053695;28;20025;-66
2022/06/08 06:44:31;;;;;;;15.93;11.63;;;32.00;99.90;;;;;;5043035;28;20517;-65
2022/06/08 06:46:58;;;;;;;13.65;10.27;;;32.30;99.90;;;;;;5050147;28;20021;-64
2022/06/08 06:49:24;;;;;;;12.77;9.10;;;32.40;99.90;;;;;;5052403;28;20036;-64
2022/06/08 06:51:53;;;;;;;12.90;8.73;;;32.50;99.90;;;;;;5052214;28;20036;-64
2022/06/08 06:54:20;;;;;;;12.73;8.02;;;32.60;99.90;;;;;;5052170;28;20052;-64
2022/06/08 06:56:46;;;;;;;10.00;7.57;;;32.70;99.90;;;;;;5051524;28;20397;-64
2022/06/08 06:59:13;;;;;;;9.85;7.30;;;32.80;99.90;;;;;;5049454;28;20116;-64
2022/06/08 07:01:41;;;;;;;11.63;7.25;;;32.90;99.90;;;;;;5050277;28;20238;-65
2022/06/08 07:04:08;;;;;;;12.73;7.90;;;33.00;99.90;;;;;;5050849;28;20451;-64
2022/06/08 07:06:35;;;;;;;22.60;7.18;;;33.00;99.90;;;;;;5050655;28;20407;-64
2022/06/08 07:09:01;;;;;;;7.97;6.03;;;32.90;99.90;;;;;;5049785;28;20009;-64
2022/06/08 07:11:50;;;;;;;12.65;6.22;;;33.00;99.90;;;;;;5051317;28;20057;-63
2022/06/08 07:14:18;;;;;;;7.88;6.13;;;33.00;99.90;;;;;;5046386;28;20037;-64
2022/06/08 07:16:47;;;;;;;7.80;6.00;;;32.90;99.90;;;;;;5049044;28;20025;-63
2022/06/08 07:19:14;;;;;;;8.43;5.93;;;32.90;99.90;;;;;;5049678;28;20040;-63
2022/06/08 07:21:42;;;;;;;9.98;6.00;;;33.00;99.90;;;;;;5051778;28;20060;-62
2022/06/08 07:24:17;;;;;;;8.10;5.10;;;33.00;99.90;;;;;;5051507;28;20091;-63
2022/06/08 07:26:44;;;;;;;10.05;5.35;;;32.80;99.90;;;;;;5051183;28;20082;-63
2022/06/08 07:29:11;;;;;;;12.25;5.63;;;32.60;99.90;;;;;;5047251;28;20063;-63
2022/06/08 07:31:37;;;;;;;11.07;5.80;;;32.50;99.90;;;;;;5050129;28;20047;-64
2022/06/08 07:34:04;;;;;;;10.23;5.25;;;32.40;99.90;;;;;;5051775;28;20040;-64
2022/06/08 07:36:31;;;;;;;17.02;6.50;;;32.30;99.90;;;;;;5051407;28;20066;-63
2022/06/08 07:38:57;;;;;;;13.88;7.40;;;32.20;99.90;;;;;;5048244;28;20086;-63
2022/06/08 07:41:25;;;;;;;11.32;6.90;;;31.90;99.90;;;;;;5050175;28;20033;-63
2022/06/08 07:43:51;;;;;;;30.98;12.50;;;31.50;99.90;;;;;;5049506;28;20194;-66
2022/06/08 07:46:19;;;;;;;34.15;16.88;;;31.00;99.90;;;;;;5052365;28;20036;-66
2022/06/08 07:51:33;;;;;;;25.58;18.65;;;29.90;99.90;;;;;;5049079;28;20029;-65
2022/06/08 07:54:00;;;;;;;30.00;19.58;;;29.60;99.90;;;;;;5053160;28;20029;-69
2022/06/08 07:56:27;;;;;;;28.48;18.85;;;29.40;99.90;;;;;;5053604;28;20462;-66
2022/06/08 07:58:54;;;;;;;30.88;17.25;;;29.10;99.90;;;;;;5044697;28;20112;-66
2022/06/08 08:01:21;;;;;;;26.33;18.20;;;28.90;99.90;;;;;;5050548;28;20032;-66
2022/06/08 08:03:47;;;;;;;31.17;16.05;;;28.80;99.90;;;;;;5043909;28;20056;-67
2022/06/08 08:06:14;;;;;;;21.70;15.27;;;28.70;99.90;;;;;;5045220;28;20033;-65
2022/06/08 08:08:41;;;;;;;30.20;16.27;;;28.70;99.90;;;;;;5045910;28;20029;-66
2022/06/08 08:11:08;;;;;;;44.78;20.17;;;28.70;99.90;;;;;;5042349;28;20017;-65
2022/06/08 08:13:36;;;;;;;39.80;21.00;;;28.70;99.90;;;;;;5047873;28;20389;-65
2022/06/08 08:16:04;;;;;;;34.15;18.50;;;28.70;99.90;;;;;;5048131;28;20048;-67
2022/06/08 08:18:31;;;;;;;11.13;5.72;;;28.40;99.90;;;;;;5043105;28;20021;-65
2022/06/08 08:20:58;;;;;;;22.38;8.80;;;27.80;99.90;;;;;;5054154;28;20021;-66
2022/06/08 08:23:25;;;;;;;12.65;7.53;;;27.50;99.90;;;;;;5057195;28;20020;-65
2022/06/08 08:25:52;;;;;;;13.55;8.00;;;27.30;99.90;;;;;;5055771;28;20017;-63
2022/06/08 08:28:19;;;;;;;11.30;8.48;;;27.10;99.90;;;;;;5049732;28;20044;-66
2022/06/08 08:30:46;;;;;;;16.17;10.30;;;26.90;99.90;;;;;;5052640;28;20433;-65
2022/06/08 08:33:12;;;;;;;10.35;7.88;;;26.80;99.90;;;;;;5052330;28;20532;-64
2022/06/08 08:35:39;;;;;;;7.25;5.53;;;26.90;99.90;;;;;;5057041;28;20021;-64
2022/06/08 08:38:06;;;;;;;6.40;5.40;;;27.00;99.90;;;;;;5056136;28;20113;-64
2022/06/08 08:40:55;;;;;;;5.13;3.15;;;27.20;99.90;;;;;;5057459;28;20029;-64
2022/06/08 08:43:26;;;;;;;6.50;2.60;;;27.20;99.90;;;;;;5024938;28;20553;-65
2022/06/08 08:46:03;;;;;;;11.50;4.40;;;27.10;99.90;;;;;;5052348;28;20024;-63
2022/06/08 08:48:48;;;;;;;8.63;3.75;;;27.10;99.90;;;;;;5050064;28;20068;-64
2022/06/08 08:51:25;;;;;;;9.65;5.93;;;27.00;99.90;;;;;;5054932;28;20375;-64
2022/06/08 08:54:14;;;;;;;6.13;4.10;;;26.80;99.90;;;;;;5055354;28;20021;-64
2022/06/08 08:56:42;;;;;;;3.85;3.20;;;26.60;99.90;;;;;;5043611;28;20037;-65
2022/06/08 08:59:31;;;;;;;5.63;3.40;;;26.60;99.90;;;;;;5051057;28;20029;-64
2022/06/08 09:01:59;;;;;;;4.63;1.90;;;26.50;99.90;;;;;;5054430;28;20501;-62
2022/06/08 09:04:31;;;;;;;2.30;1.63;;;26.50;99.90;;;;;;5051926;28;20072;-62
2022/06/08 09:07:04;;;;;;;7.93;2.55;;;26.50;99.90;;;;;;5055272;28;20017;-64
2022/06/08 09:09:33;;;;;;;3.35;2.05;;;26.60;99.90;;;;;;5055195;28;20035;-65
2022/06/08 09:12:00;;;;;;;5.78;1.90;;;26.50;99.90;;;;;;5054648;28;20151;-64
2022/06/08 09:14:45;;;;;;;7.07;2.00;;;26.50;99.90;;;;;;5053187;28;20048;-63
2022/06/08 09:17:15;;;;;;;7.25;2.90;;;26.50;99.90;;;;;;5053722;28;20038;-62
2022/06/08 09:19:47;;;;;;;6.00;3.08;;;26.60;99.90;;;;;;5054887;28;20037;-64
2022/06/08 09:22:22;;;;;;;9.63;4.00;;;26.60;99.90;;;;;;5060426;28;20039;-65
2022/06/08 09:24:55;;;;;;;9.45;5.03;;;26.80;99.90;;;;;;5055764;28;20282;-65
2022/06/08 09:27:35;;;;;;;16.25;8.35;;;26.90;99.90;;;;;;5056041;28;20025;-65
2022/06/08 09:30:04;;;;;;;15.38;8.00;;;26.90;99.90;;;;;;5055800;28;20100;-65
2022/06/08 09:32:44;;;;;;;9.00;4.93;;;26.90;99.90;;;;;;5055950;28;20029;-65
2022/06/08 09:35:26;;;;;;;10.52;5.00;;;26.90;99.90;;;;;;5054645;28;20497;-65
2022/06/08 09:37:59;;;;;;;8.02;5.88;;;27.00;99.90;;;;;;5054615;28;20025;-65
2022/06/08 09:40:37;;;;;;;10.55;6.25;;;27.00;99.90;;;;;;5055791;28;20033;-65
2022/06/08 09:43:29;;;;;;;10.93;6.63;;;27.10;99.90;;;;;;5055397;28;20112;-65
2022/06/08 09:46:04;;;;;;;10.38;6.75;;;27.00;99.90;;;;;;5055668;28;20035;-64
2022/06/08 09:52:06;;;;;;;13.63;8.98;;;27.00;99.90;;;;;;5052551;28;20517;-65
2022/06/08 09:54:33;;;;;;;13.73;8.05;;;27.10;99.90;;;;;;5027397;28;20041;-65
2022/06/08 09:57:11;;;;;;;12.98;6.93;;;27.30;99.90;;;;;;5056720;28;20466;-67
2022/06/08 09:59:46;;;;;;;8.48;6.05;;;27.20;99.90;;;;;;5053911;28;20028;-66
2022/06/08 10:02:34;;;;;;;13.23;7.97;;;27.20;99.90;;;;;;5053439;28;20096;-65
2022/06/08 10:05:41;;;;;;;12.75;8.23;;;27.00;99.90;;;;;;5054783;28;20478;-66
2022/06/08 10:08:23;;;;;;;11.45;8.48;;;26.90;99.90;;;;;;5053043;28;20285;-65
2022/06/08 10:10:54;;;;;;;;;;;26.80;99.90;;;;;;5053586;28;20028;-69
2022/06/08 10:13:28;;;;;;;16.98;10.23;;;26.90;99.90;;;;;;5053641;28;19971;-65
2022/06/08 10:16:20;;;;;;;13.85;9.45;;;26.90;99.90;;;;;;5053152;28;20025;-67
2022/06/08 10:19:06;;;;;;;12.93;9.00;;;26.90;99.90;;;;;;5028348;28;20366;-66
2022/06/08 10:21:41;;;;;;;15.38;11.15;;;26.90;99.90;;;;;;5049706;28;20492;-67
2022/06/08 10:24:22;;;;;;;20.73;12.13;;;27.00;99.90;;;;;;5051217;28;20021;-66
2022/06/08 10:27:12;;;;;;;19.73;11.68;;;26.90;99.90;;;;;;5046552;28;20083;-67
2022/06/08 10:29:59;;;;;;;15.32;12.05;;;26.80;99.90;;;;;;5048235;28;20021;-64
2022/06/08 10:32:46;;;;;;;19.30;13.77;;;26.90;99.90;;;;;;5036941;28;20427;-66
2022/06/08 10:35:48;;;;;;;17.20;13.10;;;26.80;99.90;;;;;;5017580;28;20065;-65
2022/06/08 10:38:22;;;;;;;18.58;12.30;;;26.80;99.90;;;;;;5045606;28;20379;-66
2022/06/08 10:40:55;;;;;;;17.70;11.98;;;26.90;99.90;;;;;;5053177;28;20071;-66
2022/06/08 10:43:27;;;;;;;17.92;13.30;;;26.80;99.90;;;;;;5054861;28;20079;-66
2022/06/08 10:46:00;;;;;;;16.95;10.80;;;26.70;99.90;;;;;;5047108;28;20521;-64
2022/06/08 10:48:34;;;;;;;16.13;10.85;;;26.80;99.90;;;;;;5053987;28;20297;-64
2022/06/08 10:51:10;;;;;;;17.55;11.88;;;26.90;99.90;;;;;;5045994;28;20474;-66
2022/06/08 10:56:28;;;;;;;17.67;12.07;;;26.80;99.90;;;;;;5049321;28;20032;-64
2022/06/08 10:59:20;;;;;;;19.75;10.98;;;26.80;99.90;;;;;;5052067;28;20470;-66
2022/06/08 11:01:56;;;;;;;18.38;9.90;;;26.80;99.90;;;;;;5053475;28;20063;-66
2022/06/08 11:04:35;;;;;;;12.70;9.88;;;26.70;99.90;;;;;;5053672;28;20022;-66
2022/06/08 11:07:04;;;;;;;14.48;9.73;;;26.70;99.90;;;;;;5044685;28;20484;-64
2022/06/08 11:09:33;;;;;;;13.77;9.40;;;26.90;99.90;;;;;;5043510;28;20040;-67
2022/06/08 11:12:30;;;;;;;18.60;10.75;;;26.90;99.90;;;;;;5048023;28;20075;-66
2022/06/08 11:15:10;;;;;;;16.25;10.52;;;27.00;99.90;;;;;;5047342;28;20039;-66
2022/06/08 11:17:45;;;;;;;15.85;10.20;;;27.00;99.90;;;;;;5052028;28;20036;-66
2022/06/08 11:20:16;;;;;;;14.77;9.57;;;27.10;99.90;;;;;;5050450;28;20025;-68
2022/06/08 11:22:51;;;;;;;13.85;10.50;;;27.10;99.90;;;;;;5050560;28;20021;-66
2022/06/08 11:25:25;;;;;;;16.23;9.73;;;27.20;99.90;;;;;;5052938;28;20067;-66
2022/06/08 11:28:20;;;;;;;17.30;10.32;;;27.20;99.90;;;;;;5050843;28;20132;-65
2022/06/08 11:30:50;;;;;;;20.63;12.07;;;27.10;99.90;;;;;;5050834;28;20096;-65
2022/06/08 11:33:19;;;;;;;17.27;11.00;;;27.10;99.90;;;;;;5048776;28;20371;-66
2022/06/08 11:35:50;;;;;;;19.38;11.95;;;27.10;99.90;;;;;;5052221;28;20017;-67
2022/06/08 11:38:40;;;;;;;16.80;12.52;;;27.20;99.90;;;;;;5053704;28;20108;-66
2022/06/08 11:41:51;;;;;;;20.88;13.90;;;27.20;99.90;;;;;;5046768;28;20414;-66
2022/06/08 11:44:20;;;;;;;19.85;13.65;;;27.20;99.90;;;;;;5053413;28;20040;-64
2022/06/08 11:46:53;;;;;;;20.38;13.55;;;27.10;99.90;;;;;;5064031;28;20235;-65
2022/06/08 11:49:42;;;;;;;21.13;14.80;;;27.00;99.90;;;;;;5045988;28;20050;-62
2022/06/08 11:52:29;;;;;;;27.45;16.95;;;27.10;99.90;;;;;;5044097;28;20355;-67
2022/06/08 11:55:19;;;;;;;24.27;18.42;;;27.00;99.90;;;;;;5050089;28;20184;-68
2022/06/08 11:58:06;;;;;;;24.20;17.35;;;27.10;99.90;;;;;;5053231;28;20506;-68
2022/06/08 12:00:53;;;;;;;30.00;18.92;;;27.10;99.90;;;;;;5052675;28;20062;-66
2022/06/08 12:03:29;;;;;;;31.55;19.02;;;27.10;99.90;;;;;;5050340;28;20064;-63
2022/06/08 12:06:13;;;;;;;26.23;14.25;;;27.10;99.90;;;;;;5053443;28;20549;-67
2022/06/08 12:08:48;;;;;;;22.27;14.38;;;27.00;99.90;;;;;;5046068;28;20029;-67
2022/06/08 12:11:17;;;;;;;21.40;12.88;;;27.00;99.90;;;;;;5053226;28;20036;-68
2022/06/08 12:14:03;;;;;;;21.52;13.20;;;26.90;99.90;;;;;;5036209;28;20029;-67
2022/06/08 12:16:35;;;;;;;21.80;14.80;;;26.90;99.90;;;;;;5049015;28;20239;-66
2022/06/08 12:19:12;;;;;;;32.03;25.83;;;26.90;99.90;;;;;;5053559;28;20059;-67
2022/06/08 12:21:42;;;;;;;37.95;28.08;;;26.80;99.90;;;;;;5051222;28;20107;-65
2022/06/08 12:24:17;;;;;;;36.95;27.92;;;26.90;99.90;;;;;;5044180;28;20076;-66
2022/06/08 12:26:46;;;;;;;45.05;32.08;;;26.90;99.90;;;;;;5050596;28;20031;-66
2022/06/08 12:29:13;;;;;;;44.92;31.73;;;26.90;99.90;;;;;;5051977;28;20189;-65
2022/06/08 12:31:40;;;;;;;28.02;18.75;;;26.90;99.90;;;;;;5052245;28;20504;-65
2022/06/08 12:34:36;;;;;;;25.08;14.85;;;26.90;99.90;;;;;;5052111;28;20068;-66
2022/06/08 12:37:33;;;;;;;29.05;14.73;;;26.80;99.90;;;;;;5047789;28;20382;-65
2022/06/08 12:40:21;;;;;;;22.85;15.27;;;26.80;99.90;;;;;;5043326;28;20146;-63
2022/06/08 12:42:51;;;;;;;20.63;14.63;;;26.80;99.90;;;;;;5045437;28;20025;-66
2022/06/08 12:45:33;;;;;;;23.55;15.32;;;26.90;99.90;;;;;;5048873;28;20068;-66
2022/06/08 12:48:16;;;;;;;25.35;14.90;;;26.90;99.90;;;;;;5032145;28;20045;-69
2022/06/08 12:50:43;;;;;;;21.52;14.63;;;26.90;99.90;;;;;;5020475;28;20021;-66
2022/06/08 12:53:10;;;;;;;20.13;14.65;;;27.00;99.90;;;;;;5028211;28;20033;-68
2022/06/08 12:55:40;;;;;;;23.02;15.15;;;27.10;99.90;;;;;;5018974;28;20086;-63
2022/06/08 12:58:08;;;;;;;22.65;14.63;;;27.00;99.90;;;;;;5021244;28;20034;-67
2022/06/08 13:00:37;;;;;;;25.85;14.75;;;27.00;99.90;;;;;;5035737;28;20504;-66
2022/06/08 13:03:26;;;;;;;24.20;15.73;;;27.10;99.90;;;;;;5036058;28;20032;-65
2022/06/08 13:05:53;;;;;;;27.60;17.10;;;27.10;99.90;;;;;;5035459;28;20467;-67
2022/06/08 13:08:24;;;;;;;29.23;17.52;;;27.00;99.90;;;;;;5036242;28;20033;-69
2022/06/08 13:10:54;;;;;;;31.35;17.45;;;27.00;99.90;;;;;;5035617;28;20110;-66